Airfield :
LOGIN :

Register | Disclaimer

   EN    FR    IT 

 










Legend :    VFR   Marginal VFR   IFR   Intensive IFR   Very Intensive IFR
Visi :
Ceiling :
>= 8 km
>= 3000ft
5 to 8 km
1000 to 3000 ft
1500m to 5 km
500 to 1000 ft
800 to 1500m
200 to 500 ft
< 800m
< 200 ft
Symbols :   Thunderstorms  Fog  Heavy snow  Heavy precipitations  Wind > 20 kt
SIGMETs :     Misc.  Thunderstorms  Icing  Turbulence  Mountain Waves  Volcanic Ashes






- Airport Elevation : 274 ft
- IATA code : PUY


LDPL - Pula

CURRENT METAR :
  • 050130Z 05010KT CAVOK 20/13 Q1009

EXPIRED METARs :
  • 050100Z 06011KT CAVOK 20/13 Q1008
  • 050030Z 07012KT CAVOK 20/13 Q1008
  • 050000Z 06009KT CAVOK 20/14 Q1008
  • 042330Z 07010KT CAVOK 20/14 Q1008
  • 042300Z 07015KT CAVOK 21/14 Q1008

TAF TAF LDPL
Valid from the 05 at 00:00 until the 06 at 00:00 UTC


042325Z 0500/0600 06015KT 9999 FEW050 TX23/0512Z TN16/0502Z
PROB40
TEMPO 0506/0512 06018G30KT



MET'MAP, your aeronautical weather chart ! - Copyright ORBIFLY December 2007 - Disclaimer

ORBIFLY MET'MAP TEAM :

Programming & Development : Alexandra Zaïnal
Concept & original design : Baudouin d'Aumeries
Assistance for programming : Marc-Olivier Méhu
Technical & hardware support : Manuel Goepfert

Contact : metmap@orbifly.com




SOURCES & CREDITS :

   NOAA